Terminal Aerodrome Forecast
Issued by NWS Central Illinois

Home | Current Version | Previous Version | Text Only | Print | Product List | Glossary On
Versions: 1 2 3 4 5 6 7 8 9 10 11 12
000
FTUS43 KILX 312300
TAFPIA
TAF
KPIA 312323Z 0100/0124 VRB02KT P6SM SCT070
     FM010900 VRB02KT 6SM BR BKN040
     FM011400 23003KT P6SM BKN040
     FM011800 20004KT P6SM VCTS SCT050CB BKN250=

USA.gov is the U.S. government's official web portal to all federal, state and local government web resources and services.